Koosah.INFO

KSEA Weather Observatons

This table shows observations taken by aircraft in the Seattle, WA, US area since 2019-11-13T15:09:09-0800. By default, it is sorted by time observed in ascending order. Click on a column heading to sort by that column instead. Click again on the same column heading to sort in descending order.

Show observations taken in the last:

Return to main page.

Time Observed Time Received Altitude (ft) Latitude Longitude Temperature (˚C) Wind Direction Wind speed (kn) Frequency (MHz) Source
2019-11-13T15:36:00-0800 2019-11-13T15:37:12-0800 6350 47.6164 -122.2587 5.7 156 4 130.025 .N302AS
2019-11-13T16:11:00-0800 2019-11-13T16:12:33-0800 5830 47.6113 -122.268 6.2 182 13 130.025 .N309AS
2019-11-13T15:36:00-0800 2019-11-13T15:37:12-0800 5480 47.6066 -122.292 6.0 159 12 130.025 .N302AS
2019-11-13T16:11:00-0800 2019-11-13T16:12:33-0800 5188 47.5996 -122.2986 6.5 165 13 130.025 .N309AS
2019-11-13T15:36:00-0800 2019-11-13T15:37:12-0800 4600 47.5848 -122.3083 6.2 125 14 130.025 .N302AS
2019-11-13T16:11:00-0800 2019-11-13T16:12:33-0800 4553 47.578 -122.3092 6.2 132 12 130.025 .N309AS
2019-11-13T15:41:00-0800 2019-11-13T15:43:49-0800 14276 47.5659 -121.6183 -7.7 271 16 130.025 .N302AS
2019-11-13T15:42:00-0800 2019-11-13T15:43:49-0800 15113 47.5615 -121.5669 -8.5 253 20 130.025 .N302AS
2019-11-13T15:42:00-0800 2019-11-13T15:43:49-0800 16027 47.5591 -121.5146 -10.0 (missing) (missing) 130.025 .N302AS
2019-11-13T16:13:00-0800 2019-11-13T16:13:57-0800 8401 47.5589 -122.2 4.2 317 2 130.025 .N309AS
2019-11-13T16:13:00-0800 2019-11-13T16:13:57-0800 9274 47.533 -122.1961 2.2 298 5 130.025 .N309AS
2019-11-13T16:13:00-0800 2019-11-13T16:13:57-0800 10151 47.5067 -122.1906 0.5 336 8 130.025 .N309AS
2019-11-13T15:50:00-0800 2019-11-13T15:51:01-0800 11544 47.4442 -122.0859 -2.0 321 8 130.025 .N644AS
2019-11-13T15:50:00-0800 2019-11-13T15:51:01-0800 12864 47.4121 -122.0819 -4.7 277 13 130.025 .N644AS
2019-11-13T15:50:00-0800 2019-11-13T15:51:01-0800 14023 47.38 -122.078 -7.2 268 14 130.025 .N644AS
2019-11-13T16:19:00-0800 2019-11-13T16:19:33-0800 3502 47.2891 -122.3258 10.0 119 5 130.025 .N323AS
2019-11-13T16:18:00-0800 2019-11-13T16:19:33-0800 4282 47.2401 -122.3519 9.2 172 10 130.025 .N323AS
2019-11-13T16:17:00-0800 2019-11-13T16:19:33-0800 4577 47.2097 -122.4106 9.0 184 8 130.025 .N323AS
2019-11-13T16:21:00-0800 2019-11-13T16:23:49-0800 28262 46.6827 -121.8634 -36.2 223 16 130.025 .N309AS
2019-11-13T16:22:00-0800 2019-11-13T16:23:49-0800 28783 46.644 -121.8457 -37.7 222 16 130.025 .N309AS
2019-11-13T16:22:00-0800 2019-11-13T16:23:49-0800 29291 46.6048 -121.8279 -39.0 (missing) (missing) 130.025 .N309AS